x

Central Dixon Entrance Buoy (46145) Wave Buoy

12:00pm - Tue 26th Jul 2016 All times are PDT. -7 hours from GMT.

  • Sig Wave height 2.3ft
  • Peak Period 8s
  • Wind
    9mph, 11mph gusts
  • Sea Temp 57°f
  • Air Temp 58°f
  • Sea Pressure 1021.8mb
  • Central Dixon Entrance Buoy
  • Central Dixon Entrance Buoy

More Historic Weather Station data

Upgrade to MSW Pro to gain access to the past 30 days of data for over 8000 Wavebouys and Weather Stations around the globe.

Join Pro

Comparision Forecast

View Surf forecast
   
Tue 07/26 12:00pm 2.5ft 8s 9 11 mph 1021.8mb 57f 58f
11:00am 2ft 8s 9
mph
1021.4mb 57f 58f
10:00am 2ft 9s 9 11 mph 1021.2mb 56f 57f
9:00am 2ft 9s 9 11 mph 1021mb 56f 57f
8:00am 2ft 9s 9 11 mph 1020.8mb 56f 56f
7:00am 2ft 8s 7 9 mph 1020.7mb 56f 56f
6:00am 2.5ft 8s 4 7 mph 1020.5mb 56f 56f
5:00am 2.5ft 8s 4
mph
1020.7mb 55f 56f
4:00am 2.5ft 8s 4
mph
1020.8mb 55f 56f
3:00am 3.5ft 9s 2
mph
1020.7mb 55f 56f
2:00am 3.5ft 8s 2
mph
1020.9mb 56f 56f
1:00am 3ft 8s 2 4 mph 1020.8mb 56f 56f
12:00am 3ft 10s 4 7 mph 1020.9mb 57f 56f
Mon 07/25 11:00pm 2.5ft 10s 7 9 mph 1020.7mb 57f 57f
10:00pm 2.5ft 10s 11 13 mph 1020.7mb 56f 57f
9:00pm 2.5ft 10s 9 11 mph 1020.5mb 56f 57f
8:00pm 2.5ft 10s 9 11 mph 1020.6mb 56f 57f
7:00pm 3ft 9s 9
mph
1020.6mb 57f 57f
6:00pm 3.5ft 9s 7
mph
1020.9mb 56f 56f
5:00pm 4.5ft 9s 7 9 mph 1021.3mb 56f 56f
4:00pm 4.5ft 9s 7
mph
1021.3mb 56f 57f
3:00pm 4.5ft 9s 7 9 mph 1021.6mb 56f 56f
2:00pm 5.5ft 10s 7 9 mph 1021.7mb 56f 56f
1:00pm 5ft 10s 4 7 mph 1021.6mb 57f 56f
12:00pm 5ft 10s 2 4 mph 1021.6mb 57f 56f
11:00am 4.5ft 10s  -  2 mph 1021.5mb 57f 56f
10:00am 4ft 10s  -  2 mph 1021.3mb 56f 56f
9:00am 3.5ft 10s 2
mph
1021.1mb 55f 55f
8:00am 4.5ft 10s  -  mph 1020.9mb 55f 55f
7:00am 4.5ft 10s 2 4 mph 1020.8mb 54f 55f
6:00am 4.5ft 10s 2 4 mph 1020.8mb 54f 55f
5:00am 4.5ft 10s 4 7 mph 1020.9mb 54f 55f
4:00am 5.5ft 10s 2 4 mph 1020.9mb 54f 55f
3:00am 6ft 10s 4 7 mph 1020.9mb 55f 55f
2:00am 6.5ft 10s 4 7 mph 1021mb 56f 55f
1:00am 7ft 10s 2 4 mph 1021.2mb 56f 56f
12:00am 8ft 10s 2 7 mph 1021.1mb 56f 55f
Sun 07/24 11:00pm 7ft 11s 2 4 mph 1021.2mb 55f 55f
10:00pm 6.5ft 11s 2 7 mph 1021.1mb 55f 55f
9:00pm 6.5ft 11s 4 7 mph 1020.8mb 56f 55f
8:00pm 6ft 11s 2 4 mph 1020.7mb 55f 55f
7:00pm 6.5ft 10s 4 7 mph 1020.7mb 55f 54f
6:00pm 6ft 11s 2 4 mph 1020.6mb 55f 56f
5:00pm 8ft 11s 4
mph
1020.7mb 56f 56f
4:00pm 9ft 11s  -  2 mph 1020.7mb 57f 57f
3:00pm 8ft 11s 2 4 mph 1020.5mb 56f 56f
2:00pm 8ft 10s 9 11 mph 1020.5mb 57f 56f
1:00pm 10ft 10s 4 7 mph 1020.4mb 57f 57f
12:00pm 8ft 10s 7 11 mph 1019.9mb 57f 57f
11:00am 8ft 10s 7 9 mph 1019.4mb 57f 57f
10:00am 8ft 10s 7 11 mph 1018.8mb 56f 56f
9:00am 6ft 10s 9
mph
1018.5mb 55f 56f
8:00am 7ft 10s 9
mph
1017.9mb 55f 56f
7:00am 6.5ft 9s 7 9 mph 1017.5mb 56f 56f
6:00am 6ft 8s 13 20 mph 1017.1mb 56f 55f
5:00am 6.5ft 9s 9 13 mph 1016.6mb 56f 56f
4:00am 6ft 9s 9 13 mph 1016.6mb 57f 56f
3:00am 6ft 9s 9
mph
1016.6mb 57f 56f
2:00am 5.5ft 8s 11 13 mph 1016.9mb 57f 55f
1:00am 5.5ft 8s 11 13 mph 1016.6mb 57f 57f
12:00am 5ft 8s 11 13 mph 1016.6mb 57f 57f
Sat 07/23 11:00pm 4.5ft 8s 13 16 mph 1016.5mb 57f 57f
10:00pm 5ft 8s 13 16 mph 1016.2mb 57f 57f
9:00pm 4.5ft 8s 11 16 mph 1015.7mb 57f 57f
8:00pm 4.5ft 8s 13 16 mph 1015.4mb 56f 56f
7:00pm 4ft 8s 13 16 mph 1015.1mb 56f 56f
6:00pm 3.5ft 8s 9 11 mph 1015.1mb 56f 57f
5:00pm 4ft 8s 11 13 mph 1015mb 57f 57f
4:00pm 4.5ft 7s 16 18 mph 1014.7mb 57f 57f
3:00pm 3.5ft 7s 11 16 mph 1014.9mb 58f 58f
2:00pm 3ft 7s  -  2 mph 1014.4mb 57f 58f
1:00pm 3ft 6s 7 11 mph 1014.4mb 57f 59f
12:00pm 3ft 6s 9 11 mph 1014.3mb 57f 58f
11:00am 3ft 7s 13 16 mph 1014.4mb 57f 57f
10:00am 3.5ft 7s 16 18 mph 1014.6mb 57f 57f
9:00am 3.5ft 6s 18 20 mph 1014.6mb 57f 57f
8:00am 3ft 8s 16 18 mph 1014.5mb 57f 56f
7:00am 2.5ft 6s 18 22 mph 1014.4mb 57f 57f
6:00am 2.5ft 7s 18 20 mph 1014.4mb 57f 57f
5:00am 2.5ft 7s 16 18 mph 1014.9mb 57f 58f
4:00am 2.5ft 7s 16 20 mph 1015.3mb 57f 58f
3:00am 2.5ft 7s 13 18 mph 1015.9mb 58f 58f
2:00am 2.5ft 7s 11 13 mph 1016.3mb 58f 58f
1:00am 2.5ft 7s 11 13 mph 1016.6mb 58f 58f
12:00am 2.5ft 7s 9 11 mph 1017.1mb 58f 58f
Fri 07/22 11:00pm 2.5ft 7s 9
mph
1017.3mb 58f 58f
10:00pm 2.5ft 8s 4 7 mph 1017.3mb 58f 58f
9:00pm 2.5ft 8s 4 7 mph 1017.3mb 58f 59f